Main page
METAR-TAF:

METAR-TAF

Airports :

Sidney–Richland Municipal Airport

Sidney, Montana, United States

latitude: 47-42N, longitude: 104-12W, elevation: 1984 ft

METAR: missing

Time: 13:41 (19:41 UTC)

Forecast

The report was made 2 hours and 21 minutes ago, at 17:20 UTC
Forecast valid from 19 at 18 UTC to 20 at 18 UTC
Wind 13 mph from the South
Visibility: 6 miles
Clear sky
From 20 at 0100 UTC
Wind 6 mph from variable directions
Visibility: 6 miles
Few clouds at a height of 13000 ft

TAF: KSDY 191720Z 1918/2018 17011KT P6SM SKC FM200100 VRB05KT P6SM FEW130 AMD NOT SKED

Weather observations and forecasts of more than 4000 airports (METAR and TAF reports).

The available stations are represented by yellow and red dots on the map.

Hover mouse over dot to see the name of the station.

Then click to see weather observations and forecasts.

To change the map : click on the green buttons with a black cross to zoom in, on the green button with a dash to zoom out, or on the green arrows for adjacent maps.


METAR-TAF: